Time;durP1;ratioP1;P1;durP2;ratioP2;P2;SDS_P1;SDS_P2;PMS_P1;PMS_P2;Temp;Humidity;BMP_temperature;BMP_pressure;BME280_temperature;BME280_humidity;BME280_pressure;Samples;Min_cycle;Max_cycle;Signal;HPM_P1;HPM_P2
2024/01/10 00:00:11;;;;;;;10.02;4.40;;;;;;;;;;4962257;28;20433;-74
2024/01/10 00:02:37;;;;;;;9.20;3.28;;;;;;;;;;4955267;28;20128;-74
2024/01/10 00:05:03;;;;;;;8.48;3.00;;;;;;;;;;4957766;28;20030;-74
2024/01/10 00:07:31;;;;;;;;;;;;;;;;;;4956540;28;20409;-74
2024/01/10 00:10:00;;;;;;;;;;;;;;;;;;4960785;28;20002;-74
2024/01/10 00:12:33;;;;;;;8.55;3.00;;;;;;;;;;4958037;28;19914;-74
2024/01/10 00:14:59;;;;;;;7.47;2.55;;;;;;;;;;4967459;28;20307;-74
2024/01/10 00:17:26;;;;;;;11.32;2.78;;;;;;;;;;4979500;28;20029;-74
2024/01/10 00:19:55;;;;;;;8.30;3.22;;;;;;;;;;4974132;28;20039;-74
2024/01/10 00:22:22;;;;;;;7.25;2.40;;;;;;;;;;4948439;28;20045;-74
2024/01/10 00:24:48;;;;;;;6.38;2.05;;;;;;;;;;4966668;28;20113;-74
2024/01/10 00:27:17;;;;;;;7.70;2.75;;;;;;;;;;4952687;28;21818;-74
2024/01/10 00:29:46;;;;;;;7.75;2.10;;;;;;;;;;4970839;28;20038;-74
2024/01/10 00:32:13;;;;;;;7.47;1.92;;;;;;;;;;4968871;28;20027;-74
2024/01/10 00:34:42;;;;;;;8.15;1.80;;;;;;;;;;4959570;28;20038;-73
2024/01/10 00:37:09;;;;;;;5.00;1.55;;;;;;;;;;4941212;28;20065;-75
2024/01/10 00:39:35;;;;;;;5.25;1.80;;;;;;;;;;4948227;28;20306;-74
2024/01/10 00:42:03;;;;;;;5.25;1.80;;;;;;;;;;4943011;28;20112;-74
2024/01/10 00:44:30;;;;;;;6.72;1.60;;;;;;;;;;4946974;28;20061;-74
2024/01/10 00:46:57;;;;;;;7.03;1.50;;;;;;;;;;4945129;28;20034;-74
2024/01/10 00:49:25;;;;;;;11.98;2.65;;;;;;;;;;4947022;28;20622;-74
2024/01/10 00:51:52;;;;;;;8.85;2.45;;;;;;;;;;4946512;28;20060;-74
2024/01/10 00:54:20;;;;;;;8.10;2.70;;;;;;;;;;4941943;28;20030;-73
2024/01/10 00:56:50;;;;;;;7.03;2.15;;;;;;;;;;4943776;28;20027;-73
2024/01/10 00:59:18;;;;;;;7.45;2.25;;;;;;;;;;4962962;28;20419;-73
2024/01/10 01:01:46;;;;;;;8.93;2.38;;;;;;;;;;4945772;28;20035;-74
2024/01/10 01:04:13;;;;;;;8.05;2.30;;;;;;;;;;4942744;28;20057;-74
2024/01/10 01:06:40;;;;;;;7.43;2.03;;;;;;;;;;4947737;28;20027;-74
2024/01/10 01:09:07;;;;;;;6.97;1.95;;;;;;;;;;4948684;28;20035;-74
2024/01/10 01:11:35;;;;;;;6.60;1.88;;;;;;;;;;4944894;28;20046;-74
2024/01/10 01:14:01;;;;;;;5.40;1.83;;;;;;;;;;4950483;28;20045;-74
2024/01/10 01:16:28;;;;;;;7.90;1.83;;;;;;;;;;4947636;28;20129;-73
2024/01/10 01:18:56;;;;;;;4.88;1.33;;;;;;;;;;4945073;28;20051;-73
2024/01/10 01:21:23;;;;;;;6.05;1.48;;;;;;;;;;4947835;28;20616;-73
2024/01/10 01:23:52;;;;;;;5.80;1.40;;;;;;;;;;4966028;28;20496;-73
2024/01/10 01:26:19;;;;;;;6.18;1.40;;;;;;;;;;4943919;28;20092;-73
2024/01/10 01:28:47;;;;;;;4.38;1.30;;;;;;;;;;4946191;28;20046;-73
2024/01/10 01:31:14;;;;;;;7.43;1.73;;;;;;;;;;4941210;28;20076;-73
2024/01/10 01:33:41;;;;;;;6.72;1.80;;;;;;;;;;4948300;28;20027;-73
2024/01/10 01:36:07;;;;;;;6.32;1.40;;;;;;;;;;4946030;28;20035;-74
2024/01/10 01:38:36;;;;;;;6.65;1.45;;;;;;;;;;4942972;28;20027;-73
2024/01/10 01:41:05;;;;;;;6.45;1.80;;;;;;;;;;4944732;28;20023;-73
2024/01/10 01:43:33;;;;;;;5.70;1.30;;;;;;;;;;4943486;28;20034;-73
2024/01/10 01:45:59;;;;;;;8.02;1.50;;;;;;;;;;4945767;28;20035;-73
2024/01/10 01:48:27;;;;;;;5.20;1.23;;;;;;;;;;4954056;28;20035;-72
2024/01/10 01:50:58;;;;;;;5.75;1.42;;;;;;;;;;4944162;28;20292;-73
2024/01/10 01:53:28;;;;;;;5.95;1.20;;;;;;;;;;4933115;28;20035;-72
2024/01/10 01:55:55;;;;;;;7.00;1.60;;;;;;;;;;4942637;28;20112;-72
2024/01/10 01:58:23;;;;;;;9.38;1.73;;;;;;;;;;4942793;28;20045;-72
2024/01/10 02:00:50;;;;;;;6.20;1.40;;;;;;;;;;4959833;28;20134;-73
2024/01/10 02:03:18;;;;;;;8.68;1.40;;;;;;;;;;4959400;28;20589;-73
2024/01/10 02:05:46;;;;;;;5.05;1.30;;;;;;;;;;4953773;28;20031;-73
2024/01/10 02:08:17;;;;;;;6.72;1.40;;;;;;;;;;4947583;28;20046;-73
2024/01/10 02:10:43;;;;;;;5.18;1.13;;;;;;;;;;4963426;28;20033;-72
2024/01/10 02:13:11;;;;;;;5.82;1.20;;;;;;;;;;4962013;28;20513;-72
2024/01/10 02:15:39;;;;;;;5.47;1.30;;;;;;;;;;4944585;28;20789;-73
2024/01/10 02:18:10;;;;;;;6.80;1.40;;;;;;;;;;4949380;28;20038;-73
2024/01/10 02:20:39;;;;;;;5.50;1.40;;;;;;;;;;4970887;28;20117;-72
2024/01/10 02:23:06;;;;;;;6.72;1.30;;;;;;;;;;4972751;28;20030;-73
2024/01/10 02:25:36;;;;;;;7.05;1.70;;;;;;;;;;4946544;28;20041;-72
2024/01/10 02:28:03;;;;;;;6.70;1.55;;;;;;;;;;4956686;28;20026;-72
2024/01/10 02:30:30;;;;;;;7.18;1.48;;;;;;;;;;4963659;28;20023;-74
2024/01/10 02:32:57;;;;;;;8.57;1.60;;;;;;;;;;4929755;28;20026;-72
2024/01/10 02:35:26;;;;;;;3.95;1.15;;;;;;;;;;4949372;28;20183;-73
2024/01/10 02:37:54;;;;;;;5.00;1.05;;;;;;;;;;4963889;28;20033;-72
2024/01/10 02:40:23;;;;;;;8.35;1.30;;;;;;;;;;4961892;28;20030;-73
2024/01/10 02:42:51;;;;;;;6.28;1.20;;;;;;;;;;4955061;28;20909;-72
2024/01/10 02:45:18;;;;;;;4.57;1.23;;;;;;;;;;4959398;28;20037;-72
2024/01/10 02:47:46;;;;;;;6.10;1.20;;;;;;;;;;4944631;28;20121;-72
2024/01/10 02:50:13;;;;;;;6.03;1.15;;;;;;;;;;4959018;28;20058;-72
2024/01/10 02:52:41;;;;;;;5.90;1.25;;;;;;;;;;4963780;28;20095;-73
2024/01/10 02:55:08;;;;;;;5.38;1.20;;;;;;;;;;4960135;28;20084;-72
2024/01/10 02:57:35;;;;;;;3.75;1.10;;;;;;;;;;4964220;28;20090;-73
2024/01/10 03:00:05;;;;;;;5.60;1.10;;;;;;;;;;4939247;28;20293;-72
2024/01/10 03:02:32;;;;;;;4.70;0.90;;;;;;;;;;4941245;28;20031;-73
2024/01/10 03:04:59;;;;;;;;;;;;;;;;;;4943465;28;20058;-72
2024/01/10 03:07:26;;;;;;;;;;;;;;;;;;4951344;28;19940;-72
2024/01/10 03:09:55;;;;;;;4.80;1.23;;;;;;;;;;4945426;28;19914;-73
2024/01/10 03:12:24;;;;;;;3.95;1.17;;;;;;;;;;4940006;28;20085;-74
2024/01/10 03:14:51;;;;;;;4.95;1.10;;;;;;;;;;4935437;28;20031;-72
2024/01/10 03:17:18;;;;;;;6.15;1.20;;;;;;;;;;4938825;28;20034;-72
2024/01/10 03:19:46;;;;;;;4.78;1.30;;;;;;;;;;4941792;28;20787;-73
2024/01/10 03:22:13;;;;;;;7.18;1.50;;;;;;;;;;4941185;28;20122;-72
2024/01/10 03:24:39;;;;;;;5.57;1.50;;;;;;;;;;4942808;28;20023;-73
2024/01/10 03:27:08;;;;;;;5.72;1.50;;;;;;;;;;4941896;28;20031;-72
2024/01/10 03:29:36;;;;;;;4.32;1.15;;;;;;;;;;4946119;28;20372;-74
2024/01/10 03:32:03;;;;;;;7.07;1.20;;;;;;;;;;4945512;28;20038;-74
2024/01/10 03:34:31;;;;;;;7.47;1.45;;;;;;;;;;4945903;28;20066;-73
2024/01/10 03:36:58;;;;;;;9.25;1.30;;;;;;;;;;4945115;28;20027;-72
2024/01/10 03:39:25;;;;;;;3.78;1.10;;;;;;;;;;4944767;28;20526;-73
2024/01/10 03:41:53;;;;;;;4.47;1.40;;;;;;;;;;4946080;28;20096;-72
2024/01/10 03:44:22;;;;;;;5.93;1.50;;;;;;;;;;4944085;28;20119;-73
2024/01/10 03:46:50;;;;;;;6.68;1.38;;;;;;;;;;4944204;28;20156;-73
2024/01/10 03:49:17;;;;;;;6.72;1.42;;;;;;;;;;4942779;28;20049;-73
2024/01/10 03:51:45;;;;;;;4.90;1.50;;;;;;;;;;4944704;28;20031;-73
2024/01/10 03:54:12;;;;;;;5.43;1.50;;;;;;;;;;4947306;28;20053;-73
2024/01/10 03:56:40;;;;;;;4.00;1.30;;;;;;;;;;4943520;28;20035;-73
2024/01/10 03:59:08;;;;;;;5.65;1.60;;;;;;;;;;4944905;28;20043;-73
2024/01/10 04:01:38;;;;;;;4.50;1.25;;;;;;;;;;4946315;28;20031;-73
2024/01/10 04:04:06;;;;;;;5.57;1.40;;;;;;;;;;4947457;28;20031;-73
2024/01/10 04:06:34;;;;;;;5.45;1.40;;;;;;;;;;4940103;28;20027;-73
2024/01/10 04:09:03;;;;;;;6.28;1.33;;;;;;;;;;4945548;28;20580;-73
2024/01/10 04:11:31;;;;;;;7.22;1.60;;;;;;;;;;4949189;28;20049;-73
2024/01/10 04:13:58;;;;;;;7.18;1.60;;;;;;;;;;4945241;28;20059;-73
2024/01/10 04:16:27;;;;;;;5.88;1.45;;;;;;;;;;4943801;28;20062;-72
2024/01/10 04:18:56;;;;;;;5.20;1.40;;;;;;;;;;4947325;28;20404;-73
2024/01/10 04:21:23;;;;;;;4.32;1.20;;;;;;;;;;4945660;28;20023;-73
2024/01/10 04:23:51;;;;;;;5.60;1.40;;;;;;;;;;4945654;28;20077;-73
2024/01/10 04:26:21;;;;;;;7.63;1.50;;;;;;;;;;4944658;28;20050;-73
2024/01/10 04:28:47;;;;;;;6.63;1.73;;;;;;;;;;4950691;28;20079;-72
2024/01/10 04:31:15;;;;;;;6.60;1.50;;;;;;;;;;4946719;28;20608;-73
2024/01/10 04:33:44;;;;;;;6.47;1.73;;;;;;;;;;4968398;28;20038;-73
2024/01/10 04:36:10;;;;;;;6.68;1.90;;;;;;;;;;4944793;28;20042;-73
2024/01/10 04:38:37;;;;;;;7.55;2.00;;;;;;;;;;4945321;28;20027;-73
2024/01/10 04:41:05;;;;;;;7.57;1.85;;;;;;;;;;4940001;28;20165;-73
2024/01/10 04:43:31;;;;;;;5.68;1.77;;;;;;;;;;4944494;28;20494;-72
2024/01/10 04:45:58;;;;;;;6.03;1.58;;;;;;;;;;4943559;28;20034;-72
2024/01/10 04:48:27;;;;;;;6.20;1.52;;;;;;;;;;4947589;28;20042;-73
2024/01/10 04:50:55;;;;;;;6.70;1.80;;;;;;;;;;4945721;28;20538;-72
2024/01/10 04:53:23;;;;;;;8.27;2.00;;;;;;;;;;4944768;28;20031;-72
2024/01/10 04:55:51;;;;;;;6.25;2.30;;;;;;;;;;4941669;28;20063;-73
2024/01/10 04:58:17;;;;;;;6.45;1.80;;;;;;;;;;4946397;28;20024;-73
2024/01/10 05:00:45;;;;;;;6.07;1.80;;;;;;;;;;4962668;28;20060;-73
2024/01/10 05:03:14;;;;;;;5.13;1.25;;;;;;;;;;4965554;28;20032;-73
2024/01/10 05:05:41;;;;;;;6.05;1.30;;;;;;;;;;4968730;28;20651;-73
2024/01/10 05:08:08;;;;;;;6.75;1.30;;;;;;;;;;4948718;28;20027;-73
2024/01/10 05:10:36;;;;;;;5.68;1.10;;;;;;;;;;5030336;28;20481;-74
2024/01/10 05:13:03;;;;;;;3.17;1.00;;;;;;;;;;4947147;28;20630;-73
2024/01/10 05:15:31;;;;;;;4.35;0.90;;;;;;;;;;4968390;28;20716;-73
2024/01/10 05:17:58;;;;;;;5.75;1.15;;;;;;;;;;4964227;28;20132;-73
2024/01/10 05:20:27;;;;;;;5.55;1.20;;;;;;;;;;4967030;28;20034;-73
2024/01/10 05:23:01;;;;;;;4.80;1.00;;;;;;;;;;4965684;28;20042;-74
2024/01/10 05:25:29;;;;;;;6.55;1.30;;;;;;;;;;4950499;28;20092;-74
2024/01/10 05:27:55;;;;;;;5.05;1.40;;;;;;;;;;4965110;28;20029;-74
2024/01/10 05:30:24;;;;;;;5.93;1.30;;;;;;;;;;4963360;28;20877;-73
2024/01/10 05:32:52;;;;;;;4.72;1.10;;;;;;;;;;4968094;28;20692;-74
2024/01/10 05:35:19;;;;;;;3.90;1.10;;;;;;;;;;4958103;28;20034;-74
2024/01/10 05:37:46;;;;;;;6.15;1.25;;;;;;;;;;4965810;28;20030;-75
2024/01/10 05:40:13;;;;;;;6.82;1.42;;;;;;;;;;4946993;28;20030;-75
2024/01/10 05:42:42;;;;;;;6.35;1.42;;;;;;;;;;4965811;28;20031;-76
2024/01/10 05:45:08;;;;;;;4.82;1.20;;;;;;;;;;4963694;28;20038;-73
2024/01/10 05:47:36;;;;;;;4.50;1.20;;;;;;;;;;4959468;28;20048;-73
2024/01/10 05:50:06;;;;;;;5.10;1.20;;;;;;;;;;4948915;28;20096;-73
2024/01/10 05:52:33;;;;;;;5.55;1.10;;;;;;;;;;4964098;28;20039;-73
2024/01/10 05:55:02;;;;;;;7.78;1.50;;;;;;;;;;4948398;28;20035;-74
2024/01/10 05:57:30;;;;;;;5.25;1.30;;;;;;;;;;4947241;28;20031;-74
2024/01/10 05:59:57;;;;;;;6.55;1.40;;;;;;;;;;4960901;28;20683;-74
2024/01/10 06:02:24;;;;;;;7.20;1.52;;;;;;;;;;4948391;28;20061;-74
2024/01/10 06:04:53;;;;;;;5.82;1.40;;;;;;;;;;4948934;28;20042;-74
2024/01/10 06:07:20;;;;;;;6.50;1.30;;;;;;;;;;4961699;28;20034;-75
2024/01/10 06:09:50;;;;;;;4.75;1.42;;;;;;;;;;4967511;28;20062;-74
2024/01/10 06:12:17;;;;;;;6.80;1.40;;;;;;;;;;4970209;28;20034;-74
2024/01/10 06:14:44;;;;;;;6.07;1.45;;;;;;;;;;4946978;28;20023;-74
2024/01/10 06:17:12;;;;;;;4.55;1.40;;;;;;;;;;4960311;28;20034;-74
2024/01/10 06:19:39;;;;;;;5.70;1.42;;;;;;;;;;4949062;28;20037;-74
2024/01/10 06:22:07;;;;;;;6.18;1.67;;;;;;;;;;4963746;28;20034;-73
2024/01/10 06:24:34;;;;;;;5.97;1.42;;;;;;;;;;4953396;28;20625;-73
2024/01/10 06:27:01;;;;;;;5.18;1.45;;;;;;;;;;4948123;28;20034;-74
2024/01/10 06:29:29;;;;;;;5.13;1.35;;;;;;;;;;4966544;28;20129;-74
2024/01/10 06:31:57;;;;;;;5.40;1.38;;;;;;;;;;4960470;28;20066;-74
2024/01/10 06:34:25;;;;;;;6.07;1.70;;;;;;;;;;4959006;28;20729;-75
2024/01/10 06:36:52;;;;;;;5.38;1.38;;;;;;;;;;4948290;28;20230;-74
2024/01/10 06:39:19;;;;;;;5.25;1.55;;;;;;;;;;4944282;28;20029;-74
2024/01/10 06:41:51;;;;;;;5.13;1.40;;;;;;;;;;4964413;28;20042;-74
2024/01/10 06:44:19;;;;;;;6.30;1.42;;;;;;;;;;4962995;28;21000;-74
2024/01/10 06:46:45;;;;;;;6.93;1.80;;;;;;;;;;4944420;28;20138;-74
2024/01/10 06:49:12;;;;;;;;;;;;;;;;;;4948551;28;20043;-73
2024/01/10 06:51:39;;;;;;;5.22;1.52;;;;;;;;;;4961196;28;19942;-74
2024/01/10 06:54:08;;;;;;;7.82;1.85;;;;;;;;;;4959523;28;20057;-73
2024/01/10 06:56:37;;;;;;;7.13;1.70;;;;;;;;;;4966614;28;20030;-73
2024/01/10 06:59:04;;;;;;;5.78;1.65;;;;;;;;;;4962917;28;20046;-73
2024/01/10 07:01:32;;;;;;;6.43;1.58;;;;;;;;;;4959417;28;20034;-74
2024/01/10 07:04:02;;;;;;;5.57;1.88;;;;;;;;;;4948121;28;20033;-73
2024/01/10 07:06:29;;;;;;;5.45;1.70;;;;;;;;;;4951865;28;20599;-74
2024/01/10 07:08:58;;;;;;;6.05;1.73;;;;;;;;;;4965750;28;20038;-73
2024/01/10 07:11:28;;;;;;;7.03;2.45;;;;;;;;;;4965943;28;20132;-74
2024/01/10 07:13:55;;;;;;;8.00;2.80;;;;;;;;;;4962242;28;20038;-74
2024/01/10 07:16:22;;;;;;;6.38;2.30;;;;;;;;;;4958411;28;20031;-74
2024/01/10 07:18:51;;;;;;;7.70;2.33;;;;;;;;;;4957761;28;20619;-73
2024/01/10 07:21:19;;;;;;;8.02;2.80;;;;;;;;;;4960232;28;20046;-74
2024/01/10 07:23:46;;;;;;;8.77;2.85;;;;;;;;;;5032370;28;20040;-74
2024/01/10 07:26:16;;;;;;;8.40;2.38;;;;;;;;;;4958125;28;20041;-74
2024/01/10 07:28:43;;;;;;;9.43;3.72;;;;;;;;;;4960643;28;20523;-74
2024/01/10 07:31:09;;;;;;;8.77;3.38;;;;;;;;;;4965242;28;20038;-74
2024/01/10 07:33:38;;;;;;;8.38;2.80;;;;;;;;;;4969221;28;20046;-74
2024/01/10 07:36:05;;;;;;;9.90;2.70;;;;;;;;;;4954685;28;20035;-74
2024/01/10 07:38:34;;;;;;;7.20;2.80;;;;;;;;;;4949648;28;20872;-74
2024/01/10 07:41:02;;;;;;;8.07;2.50;;;;;;;;;;4950563;28;20537;-74
2024/01/10 07:43:29;;;;;;;7.97;2.58;;;;;;;;;;4963111;28;20014;-74
2024/01/10 07:45:57;;;;;;;8.82;2.55;;;;;;;;;;4966770;28;20062;-73
2024/01/10 07:48:24;;;;;;;9.30;2.60;;;;;;;;;;4961795;28;20101;-74
2024/01/10 07:50:52;;;;;;;10.52;2.97;;;;;;;;;;4967494;28;20042;-75
2024/01/10 07:53:19;;;;;;;8.52;2.00;;;;;;;;;;4965251;28;20014;-74
2024/01/10 07:55:47;;;;;;;8.82;2.40;;;;;;;;;;4956588;28;20727;-74
2024/01/10 07:58:15;;;;;;;8.10;2.17;;;;;;;;;;4961071;28;20036;-74
2024/01/10 08:00:46;;;;;;;8.45;2.45;;;;;;;;;;4958566;28;20052;-74
2024/01/10 08:03:13;;;;;;;9.57;3.50;;;;;;;;;;4942703;28;20039;-75
2024/01/10 08:05:43;;;;;;;13.65;7.43;;;;;;;;;;4945169;28;20031;-74
2024/01/10 08:08:13;;;;;;;16.05;9.35;;;;;;;;;;4941459;28;20031;-74
2024/01/10 08:10:40;;;;;;;20.42;10.95;;;;;;;;;;4931087;28;20030;-74
2024/01/10 08:13:08;;;;;;;18.83;10.88;;;;;;;;;;4941642;28;20039;-76
2024/01/10 08:15:36;;;;;;;21.67;12.10;;;;;;;;;;4942308;28;20070;-74
2024/01/10 08:18:04;;;;;;;20.60;10.27;;;;;;;;;;4941716;28;20674;-75
2024/01/10 08:20:31;;;;;;;16.55;7.90;;;;;;;;;;4946069;28;20029;-76
2024/01/10 08:22:58;;;;;;;20.05;8.50;;;;;;;;;;4949750;28;20030;-75
2024/01/10 08:25:26;;;;;;;18.95;8.27;;;;;;;;;;4942074;28;20034;-73
2024/01/10 08:27:55;;;;;;;16.35;6.43;;;;;;;;;;4945426;28;20506;-76
2024/01/10 08:30:23;;;;;;;12.55;4.82;;;;;;;;;;4948167;28;20027;-76
2024/01/10 08:32:50;;;;;;;12.77;4.60;;;;;;;;;;4942338;28;20102;-74
2024/01/10 08:35:16;;;;;;;12.43;4.35;;;;;;;;;;4943500;28;20043;-73
2024/01/10 08:37:44;;;;;;;12.90;3.90;;;;;;;;;;4951520;28;20406;-73
2024/01/10 08:40:14;;;;;;;10.32;3.50;;;;;;;;;;4937890;28;20030;-73
2024/01/10 08:42:43;;;;;;;10.02;3.30;;;;;;;;;;4944072;28;20042;-74
2024/01/10 08:45:11;;;;;;;10.68;3.08;;;;;;;;;;4941424;28;20026;-74
2024/01/10 08:47:37;;;;;;;8.68;3.10;;;;;;;;;;4945693;28;20667;-74
2024/01/10 08:50:13;;;;;;;;;;;;;;;;;;4945147;28;20348;-74
2024/01/10 08:52:39;;;;;;;11.38;4.18;;;;;;;;;;4948156;28;19920;-73
2024/01/10 08:55:10;;;;;;;11.25;3.97;;;;;;;;;;4949384;28;20195;-74
2024/01/10 08:57:38;;;;;;;16.88;8.95;;;;;;;;;;4943952;28;20023;-74
2024/01/10 09:00:06;;;;;;;20.80;11.32;;;;;;;;;;4946397;28;20055;-74
2024/01/10 09:02:36;;;;;;;18.08;9.52;;;;;;;;;;4946036;28;20027;-74
2024/01/10 09:05:04;;;;;;;13.95;6.93;;;;;;;;;;4945813;28;20033;-74
2024/01/10 09:07:32;;;;;;;12.88;6.13;;;;;;;;;;4943773;28;20081;-74
2024/01/10 09:10:01;;;;;;;13.27;5.50;;;;;;;;;;4942827;28;20035;-73
2024/01/10 09:12:29;;;;;;;13.25;5.35;;;;;;;;;;4947709;28;20027;-74
2024/01/10 09:14:58;;;;;;;12.55;4.60;;;;;;;;;;4943729;28;20027;-74
2024/01/10 09:17:25;;;;;;;12.07;4.50;;;;;;;;;;4977279;28;20667;-74
2024/01/10 09:19:53;;;;;;;9.30;3.58;;;;;;;;;;4947957;28;20027;-74
2024/01/10 09:22:20;;;;;;;11.40;4.25;;;;;;;;;;4945475;28;20027;-74
2024/01/10 09:24:48;;;;;;;10.15;3.80;;;;;;;;;;4947023;28;20621;-74
2024/01/10 09:27:16;;;;;;;10.15;3.65;;;;;;;;;;4941043;28;20073;-74
2024/01/10 09:29:42;;;;;;;10.40;3.90;;;;;;;;;;4944441;28;20149;-74
2024/01/10 09:32:08;;;;;;;;;;;;;;;;;;4951402;28;20043;-74
2024/01/10 09:34:35;;;;;;;12.23;4.03;;;;;;;;;;4945699;28;19925;-73
2024/01/10 09:37:05;;;;;;;11.65;4.78;;;;;;;;;;4943237;28;20142;-73
2024/01/10 09:39:32;;;;;;;9.10;3.55;;;;;;;;;;4945785;28;20023;-78
2024/01/10 09:42:01;;;;;;;8.20;3.58;;;;;;;;;;4943848;28;20156;-73
2024/01/10 09:44:30;;;;;;;8.10;3.08;;;;;;;;;;4944359;28;20566;-75
2024/01/10 09:46:57;;;;;;;7.88;3.20;;;;;;;;;;4945079;28;20035;-75
2024/01/10 09:49:25;;;;;;;9.50;3.60;;;;;;;;;;4944795;28;20091;-75
2024/01/10 09:52:07;;;;;;;9.05;3.17;;;;;;;;;;4942205;28;20038;-75
2024/01/10 09:54:38;;;;;;;8.05;3.42;;;;;;;;;;4945496;28;20043;-75
2024/01/10 09:57:05;;;;;;;9.68;3.70;;;;;;;;;;4944493;28;20074;-74
2024/01/10 09:59:33;;;;;;;8.15;3.47;;;;;;;;;;4954560;28;20054;-74
2024/01/10 10:02:12;;;;;;;9.52;3.85;;;;;;;;;;4949675;28;20038;-73
2024/01/10 10:04:40;;;;;;;9.23;3.40;;;;;;;;;;4946502;28;20049;-73
2024/01/10 10:07:06;;;;;;;9.40;3.17;;;;;;;;;;4942855;28;20076;-73
2024/01/10 10:09:35;;;;;;;9.27;3.63;;;;;;;;;;4942210;28;21215;-74
2024/01/10 10:12:04;;;;;;;8.38;3.42;;;;;;;;;;4940817;28;20039;-74
2024/01/10 10:14:32;;;;;;;10.10;3.67;;;;;;;;;;4943782;28;20100;-74
2024/01/10 10:17:14;;;;;;;9.50;3.80;;;;;;;;;;4941048;28;20137;-74
2024/01/10 10:19:43;;;;;;;9.02;3.70;;;;;;;;;;4946018;28;20039;-74
2024/01/10 10:22:11;;;;;;;9.52;4.05;;;;;;;;;;4946692;28;20027;-73
2024/01/10 10:24:37;;;;;;;8.38;3.20;;;;;;;;;;4939664;28;20086;-75
2024/01/10 10:27:09;;;;;;;10.18;3.67;;;;;;;;;;4944513;28;20145;-73
2024/01/10 10:29:37;;;;;;;8.93;3.70;;;;;;;;;;4944830;28;20035;-73
2024/01/10 10:32:06;;;;;;;7.75;2.90;;;;;;;;;;4943874;28;20505;-74
2024/01/10 10:34:35;;;;;;;9.35;2.83;;;;;;;;;;4946912;28;20039;-74
2024/01/10 10:37:02;;;;;;;10.75;2.50;;;;;;;;;;4945581;28;20475;-73
2024/01/10 10:39:30;;;;;;;7.25;2.33;;;;;;;;;;4950611;28;20132;-73
2024/01/10 10:41:59;;;;;;;7.97;2.03;;;;;;;;;;4946072;28;20305;-74
2024/01/10 10:44:27;;;;;;;8.05;2.10;;;;;;;;;;4945581;28;20046;-76
2024/01/10 10:46:55;;;;;;;11.80;3.00;;;;;;;;;;4947008;28;20512;-75
2024/01/10 10:49:26;;;;;;;7.47;2.35;;;;;;;;;;4928892;28;20147;-74
2024/01/10 10:51:54;;;;;;;10.85;3.25;;;;;;;;;;4953852;28;20030;-74
2024/01/10 10:54:21;;;;;;;10.30;4.45;;;;;;;;;;4946852;28;20041;-74
2024/01/10 10:56:48;;;;;;;10.38;3.70;;;;;;;;;;4947167;28;20062;-81
2024/01/10 10:59:16;;;;;;;8.70;2.80;;;;;;;;;;4949206;28;20050;-81
2024/01/10 11:01:42;;;;;;;13.70;5.47;;;;;;;;;;4950392;28;20026;-79
2024/01/10 11:04:08;;;;;;;;;;;;;;;;;;4948131;28;20057;-79
2024/01/10 11:06:35;;;;;;;9.43;3.80;;;;;;;;;;4949490;28;20328;-80
2024/01/10 11:09:06;;;;;;;11.75;3.80;;;;;;;;;;4949069;28;20043;-81
2024/01/10 11:11:46;;;;;;;10.85;4.45;;;;;;;;;;4949443;28;20043;-80
2024/01/10 11:14:27;;;;;;;9.80;3.05;;;;;;;;;;4946725;28;20613;-80
2024/01/10 11:17:14;;;;;;;10.13;2.88;;;;;;;;;;4951893;28;20471;-81
2024/01/10 11:19:55;;;;;;;6.90;2.00;;;;;;;;;;4948353;28;20078;-82
2024/01/10 11:22:46;;;;;;;8.57;2.25;;;;;;;;;;4953372;28;20051;-82
2024/01/10 11:25:14;;;;;;;10.55;2.60;;;;;;;;;;4948748;28;20489;-81
2024/01/10 11:27:40;;;;;;;7.88;2.20;;;;;;;;;;4953216;28;20027;-80
2024/01/10 11:30:10;;;;;;;9.15;2.50;;;;;;;;;;4958667;28;20039;-80
2024/01/10 11:32:38;;;;;;;8.30;2.70;;;;;;;;;;4956869;28;20038;-81
2024/01/10 11:35:17;;;;;;;7.78;2.40;;;;;;;;;;4959719;28;20034;-82
2024/01/10 11:37:46;;;;;;;10.32;2.97;;;;;;;;;;4958466;28;20031;-79
2024/01/10 11:40:14;;;;;;;7.72;2.50;;;;;;;;;;4945538;28;20536;-80
2024/01/10 11:42:45;;;;;;;19.15;11.25;;;;;;;;;;4948668;28;20077;-79
2024/01/10 11:45:34;;;;;;;26.27;18.50;;;;;;;;;;4945859;28;20027;-80
2024/01/10 11:48:00;;;;;;;15.05;8.32;;;;;;;;;;4942757;28;20043;-80
2024/01/10 11:50:28;;;;;;;12.70;5.13;;;;;;;;;;4952712;28;20037;-80
2024/01/10 11:52:54;;;;;;;9.80;4.53;;;;;;;;;;4951591;28;20035;-80
2024/01/10 11:55:39;;;;;;;7.88;3.00;;;;;;;;;;4947369;28;20043;-81
2024/01/10 11:58:10;;;;;;;10.95;3.50;;;;;;;;;;4949059;28;20030;-82
2024/01/10 12:00:38;;;;;;;10.00;2.90;;;;;;;;;;4971114;28;20054;-80
2024/01/10 12:03:04;;;;;;;7.32;2.15;;;;;;;;;;4969990;28;20034;-81
2024/01/10 12:05:33;;;;;;;7.75;2.60;;;;;;;;;;4958890;28;20042;-80
2024/01/10 12:08:00;;;;;;;7.32;1.73;;;;;;;;;;4966144;28;20023;-79
2024/01/10 12:10:35;;;;;;;6.63;1.70;;;;;;;;;;4956840;28;20220;-80
2024/01/10 12:13:03;;;;;;;;;;;;;;;;;;4966734;28;20112;-79
2024/01/10 12:15:29;;;;;;;7.88;1.67;;;;;;;;;;4982254;28;19922;-79
2024/01/10 12:17:56;;;;;;;5.32;1.10;;;;;;;;;;4962116;28;21937;-78
2024/01/10 12:20:23;;;;;;;4.30;1.30;;;;;;;;;;4976249;28;20729;-79
2024/01/10 12:22:52;;;;;;;4.43;1.38;;;;;;;;;;4973743;28;20030;-79
2024/01/10 12:25:19;;;;;;;6.40;1.98;;;;;;;;;;4969969;28;20344;-79
2024/01/10 12:27:45;;;;;;;9.73;1.80;;;;;;;;;;4972886;28;20034;-79
2024/01/10 12:30:12;;;;;;;5.68;1.30;;;;;;;;;;4967649;28;20031;-80
2024/01/10 12:32:38;;;;;;;7.28;1.38;;;;;;;;;;4974176;28;20136;-80
2024/01/10 12:35:05;;;;;;;7.93;1.65;;;;;;;;;;4972049;28;20030;-79
2024/01/10 12:37:32;;;;;;;8.18;1.52;;;;;;;;;;4974951;28;20065;-80
2024/01/10 12:39:58;;;;;;;5.40;1.50;;;;;;;;;;4972277;28;20034;-79
2024/01/10 12:42:24;;;;;;;8.32;1.90;;;;;;;;;;4976560;28;20031;-80
2024/01/10 12:44:51;;;;;;;7.57;2.38;;;;;;;;;;4967310;28;20034;-80
2024/01/10 12:47:23;;;;;;;9.35;2.25;;;;;;;;;;5039164;28;20041;-80
2024/01/10 12:49:50;;;;;;;5.68;1.13;;;;;;;;;;4971534;28;20061;-81
2024/01/10 12:52:17;;;;;;;4.53;1.10;;;;;;;;;;4978265;28;20025;-81
2024/01/10 12:54:43;;;;;;;22.77;18.70;;;;;;;;;;4976399;28;20030;-81
2024/01/10 12:57:09;;;;;;;8.32;3.97;;;;;;;;;;4974699;28;20033;-80
2024/01/10 12:59:35;;;;;;;4.07;1.17;;;;;;;;;;4977254;28;20072;-80
2024/01/10 13:02:02;;;;;;;3.78;0.93;;;;;;;;;;4973846;28;20030;-80
2024/01/10 13:04:28;;;;;;;2.83;0.88;;;;;;;;;;4960567;28;20038;-79
2024/01/10 13:06:54;;;;;;;4.28;0.80;;;;;;;;;;4977744;28;20364;-80
2024/01/10 13:09:20;;;;;;;5.18;1.38;;;;;;;;;;4980990;28;20055;-80
2024/01/10 13:11:46;;;;;;;4.82;1.23;;;;;;;;;;4963057;28;20030;-81
2024/01/10 13:14:13;;;;;;;6.03;1.85;;;;;;;;;;4953597;28;20030;-81
2024/01/10 13:16:39;;;;;;;6.82;1.40;;;;;;;;;;4978195;28;20417;-81
2024/01/10 13:19:05;;;;;;;6.80;1.52;;;;;;;;;;4968895;28;20038;-81
2024/01/10 13:21:31;;;;;;;5.63;1.55;;;;;;;;;;4972339;28;20037;-79
2024/01/10 13:23:57;;;;;;;7.28;1.50;;;;;;;;;;4951402;28;20035;-81
2024/01/10 13:26:23;;;;;;;5.95;1.55;;;;;;;;;;4968406;28;20035;-80
2024/01/10 13:28:50;;;;;;;6.80;1.88;;;;;;;;;;4962409;28;20026;-79
2024/01/10 13:31:17;;;;;;;5.65;1.58;;;;;;;;;;4950940;28;20074;-80
2024/01/10 13:33:43;;;;;;;9.77;2.15;;;;;;;;;;4963842;28;20091;-79
2024/01/10 13:36:09;;;;;;;7.50;2.10;;;;;;;;;;4959295;28;20027;-80
2024/01/10 13:38:35;;;;;;;7.25;1.90;;;;;;;;;;4954764;28;20027;-82
2024/01/10 13:41:01;;;;;;;8.52;2.20;;;;;;;;;;4960867;28;20018;-82
2024/01/10 13:43:28;;;;;;;8.15;2.17;;;;;;;;;;4949987;28;20023;-81
2024/01/10 13:45:54;;;;;;;7.80;2.67;;;;;;;;;;4945552;28;20115;-80
2024/01/10 13:48:20;;;;;;;10.10;3.30;;;;;;;;;;4954486;28;20027;-80
2024/01/10 13:50:46;;;;;;;;;;;;;;;;;;4964319;28;20035;-80
2024/01/10 13:53:12;;;;;;;10.40;4.38;;;;;;;;;;4969423;28;19913;-80
2024/01/10 13:55:39;;;;;;;12.07;4.93;;;;;;;;;;4964608;28;20039;-80
2024/01/10 13:58:05;;;;;;;9.02;3.95;;;;;;;;;;4967785;28;20036;-81
2024/01/10 14:00:31;;;;;;;9.27;3.10;;;;;;;;;;4969022;28;20062;-79
2024/01/10 14:02:59;;;;;;;;;;;;;;;;;;4976154;28;20058;-83
2024/01/10 14:05:28;;;;;;;11.00;3.60;;;;;;;;;;4966780;28;20452;-81
2024/01/10 14:07:54;;;;;;;8.07;2.70;;;;;;;;;;4966637;28;20595;-81
2024/01/10 14:10:20;;;;;;;9.05;3.05;;;;;;;;;;4952713;28;20080;-81
2024/01/10 14:12:47;;;;;;;8.13;2.53;;;;;;;;;;4953677;28;21118;-81
2024/01/10 14:15:13;;;;;;;10.10;2.80;;;;;;;;;;4953513;28;20026;-81
2024/01/10 14:17:40;;;;;;;9.20;2.58;;;;;;;;;;4965829;28;20039;-80
2024/01/10 14:20:08;;;;;;;11.15;3.50;;;;;;;;;;4956769;28;20116;-81
2024/01/10 14:22:35;;;;;;;9.48;4.35;;;;;;;;;;4964918;28;20566;-82
2024/01/10 14:25:02;;;;;;;11.23;3.50;;;;;;;;;;4961827;28;20041;-80
2024/01/10 14:27:28;;;;;;;10.27;2.72;;;;;;;;;;4950942;28;20038;-81
2024/01/10 14:29:54;;;;;;;11.05;3.20;;;;;;;;;;4948245;28;20041;-80
2024/01/10 14:32:21;;;;;;;;;;;;;;;;;;4963004;28;20516;-80
2024/01/10 14:34:47;;;;;;;8.65;2.88;;;;;;;;;;4966526;28;19918;-80
2024/01/10 14:37:13;;;;;;;7.88;3.00;;;;;;;;;;4963389;28;20049;-81
2024/01/10 14:39:40;;;;;;;8.65;2.90;;;;;;;;;;4963230;28;20031;-81
2024/01/10 14:42:09;;;;;;;8.35;2.90;;;;;;;;;;4950562;28;20896;-83
2024/01/10 14:44:35;;;;;;;8.13;2.60;;;;;;;;;;4962210;28;20034;-82
2024/01/10 14:47:02;;;;;;;10.48;2.20;;;;;;;;;;4944717;28;20629;-81